sensor_id;sensor_type;location;lat;lon;timestamp;pressure;altitude;pressure_sealevel;temperature;humidity
49801;BME280;35698;50.232;30.540;2023-02-10T00:00:17;102371.02;;;-7.55;100.00
49801;BME280;35698;50.232;30.540;2023-02-10T00:01:29;102361.59;;;-7.38;100.00
49801;BME280;35698;50.232;30.540;2023-02-10T00:02:32;102364.42;;;-7.50;100.00
49801;BME280;35698;50.232;30.540;2023-02-10T00:03:56;102358.11;;;-7.56;100.00
49801;BME280;35698;50.232;30.540;2023-02-10T00:05:00;102353.77;;;-7.57;100.00
49801;BME280;35698;50.232;30.540;2023-02-10T00:06:04;102356.58;;;-7.53;100.00
49801;BME280;35698;50.232;30.540;2023-02-10T00:07:15;102358.64;;;-7.46;100.00
49801;BME280;35698;50.232;30.540;2023-02-10T00:08:19;102354.97;;;-7.51;100.00
49801;BME280;35698;50.232;30.540;2023-02-10T00:09:22;102354.97;;;-7.51;100.00
49801;BME280;35698;50.232;30.540;2023-02-10T00:10:26;102351.89;;;-7.44;100.00
49801;BME280;35698;50.232;30.540;2023-02-10T00:11:29;102354.81;;;-7.54;100.00
49801;BME280;35698;50.232;30.540;2023-02-10T00:12:36;102360.62;;;-7.40;100.00
49801;BME280;35698;50.232;30.540;2023-02-10T00:13:39;102349.48;;;-7.41;100.00
49801;BME280;35698;50.232;30.540;2023-02-10T00:14:51;102355.80;;;-7.34;100.00
49801;BME280;35698;50.232;30.540;2023-02-10T00:15:57;102357.18;;;-7.41;100.00
49801;BME280;35698;50.232;30.540;2023-02-10T00:17:08;102354.56;;;-7.24;100.00
49801;BME280;35698;50.232;30.540;2023-02-10T00:18:12;102348.82;;;-7.37;100.00
49801;BME280;35698;50.232;30.540;2023-02-10T00:19:33;102357.48;;;-7.35;100.00
49801;BME280;35698;50.232;30.540;2023-02-10T00:20:37;102350.51;;;-7.37;100.00
49801;BME280;35698;50.232;30.540;2023-02-10T00:21:49;102349.20;;;-7.29;100.00
49801;BME280;35698;50.232;30.540;2023-02-10T00:23:12;102350.73;;;-7.33;100.00
49801;BME280;35698;50.232;30.540;2023-02-10T00:24:34;102346.53;;;-7.48;100.00
49801;BME280;35698;50.232;30.540;2023-02-10T00:25:38;102348.37;;;-7.46;100.00
49801;BME280;35698;50.232;30.540;2023-02-10T00:26:42;102345.37;;;-7.37;100.00
49801;BME280;35698;50.232;30.540;2023-02-10T00:27:46;102340.16;;;-7.39;100.00
49801;BME280;35698;50.232;30.540;2023-02-10T00:28:49;102341.63;;;-7.44;100.00
49801;BME280;35698;50.232;30.540;2023-02-10T00:29:53;102341.77;;;-7.41;100.00
49801;BME280;35698;50.232;30.540;2023-02-10T00:30:57;102346.26;;;-7.37;100.00
49801;BME280;35698;50.232;30.540;2023-02-10T00:32:01;102345.52;;;-7.34;100.00
49801;BME280;35698;50.232;30.540;2023-02-10T00:33:04;102346.41;;;-7.34;100.00
49801;BME280;35698;50.232;30.540;2023-02-10T00:34:11;102345.30;;;-7.39;100.00
49801;BME280;35698;50.232;30.540;2023-02-10T00:35:15;102342.00;;;-7.36;100.00
49801;BME280;35698;50.232;30.540;2023-02-10T00:36:19;102339.21;;;-7.41;100.00
49801;BME280;35698;50.232;30.540;2023-02-10T00:37:23;102336.64;;;-7.41;100.00
49801;BME280;35698;50.232;30.540;2023-02-10T00:38:35;102343.25;;;-7.28;100.00
49801;BME280;35698;50.232;30.540;2023-02-10T00:39:38;102333.19;;;-7.41;100.00
49801;BME280;35698;50.232;30.540;2023-02-10T00:41:05;102333.05;;;-7.44;100.00
49801;BME280;35698;50.232;30.540;2023-02-10T00:42:17;102321.98;;;-7.25;100.00
49801;BME280;35698;50.232;30.540;2023-02-10T00:43:20;102317.36;;;-7.33;100.00
49801;BME280;35698;50.232;30.540;2023-02-10T00:44:42;102320.66;;;-7.35;100.00
49801;BME280;35698;50.232;30.540;2023-02-10T00:46:03;102314.86;;;-7.31;100.00
49801;BME280;35698;50.232;30.540;2023-02-10T00:47:07;102327.25;;;-7.40;100.00
49801;BME280;35698;50.232;30.540;2023-02-10T00:48:19;102317.80;;;-7.23;100.00
49801;BME280;35698;50.232;30.540;2023-02-10T00:49:23;102309.66;;;-7.33;100.00
49801;BME280;35698;50.232;30.540;2023-02-10T00:50:26;102309.66;;;-7.33;100.00
49801;BME280;35698;50.232;30.540;2023-02-10T00:51:48;102314.86;;;-7.31;100.00
49801;BME280;35698;50.232;30.540;2023-02-10T00:53:00;102302.53;;;-7.20;100.00
49801;BME280;35698;50.232;30.540;2023-02-10T00:54:04;102310.45;;;-7.34;100.00
49801;BME280;35698;50.232;30.540;2023-02-10T00:55:08;102311.27;;;-7.35;100.00
49801;BME280;35698;50.232;30.540;2023-02-10T00:56:29;102304.66;;;-7.30;100.00
49801;BME280;35698;50.232;30.540;2023-02-10T00:57:33;102307.38;;;-7.27;100.00
49801;BME280;35698;50.232;30.540;2023-02-10T00:58:36;102304.81;;;-7.27;100.00
49801;BME280;35698;50.232;30.540;2023-02-10T00:59:40;102305.77;;;-7.24;100.00
49801;BME280;35698;50.232;30.540;2023-02-10T01:01:04;102300.48;;;-7.28;100.00
49801;BME280;35698;50.232;30.540;2023-02-10T01:02:16;102300.26;;;-7.14;100.00
49801;BME280;35698;50.232;30.540;2023-02-10T01:03:20;102302.09;;;-7.30;100.00
49801;BME280;35698;50.232;30.540;2023-02-10T01:04:24;102295.05;;;-7.34;100.00
49801;BME280;35698;50.232;30.540;2023-02-10T01:05:45;102295.86;;;-7.35;100.00
49801;BME280;35698;50.232;30.540;2023-02-10T01:06:56;102291.16;;;-7.25;100.00
49801;BME280;35698;50.232;30.540;2023-02-10T01:08:00;102292.62;;;-7.31;100.00
49801;BME280;35698;50.232;30.540;2023-02-10T01:09:04;102297.69;;;-7.32;100.00
49801;BME280;35698;50.232;30.540;2023-02-10T01:10:26;102291.75;;;-7.31;100.00
49801;BME280;35698;50.232;30.540;2023-02-10T01:12:01;102284.86;;;-7.32;100.00
49801;BME280;35698;50.232;30.540;2023-02-10T01:13:09;102294.39;;;-7.30;100.00
49801;BME280;35698;50.232;30.540;2023-02-10T01:14:14;102292.12;;;-7.23;100.00
49801;BME280;35698;50.232;30.540;2023-02-10T01:15:19;102293.88;;;-7.22;100.00
49801;BME280;35698;50.232;30.540;2023-02-10T01:16:31;102288.22;;;-7.15;100.00
49801;BME280;35698;50.232;30.540;2023-02-10T01:17:34;102291.31;;;-7.22;100.00
49801;BME280;35698;50.232;30.540;2023-02-10T01:18:39;102285.88;;;-7.29;100.00
49801;BME280;35698;50.232;30.540;2023-02-10T01:19:43;102285.95;;;-7.27;100.00
49801;BME280;35698;50.232;30.540;2023-02-10T01:21:09;102287.50;;;-7.31;100.00
49801;BME280;35698;50.232;30.540;2023-02-10T01:22:21;102283.75;;;-7.19;100.00
49801;BME280;35698;50.232;30.540;2023-02-10T01:23:25;102286.77;;;-7.28;100.00
49801;BME280;35698;50.232;30.540;2023-02-10T01:24:29;102283.31;;;-7.29;100.00
49801;BME280;35698;50.232;30.540;2023-02-10T01:25:33;102280.60;;;-7.32;100.00
49801;BME280;35698;50.232;30.540;2023-02-10T01:26:55;102279.80;;;-7.31;100.00
49801;BME280;35698;50.232;30.540;2023-02-10T01:28:03;102284.93;;;-7.31;100.00
49801;BME280;35698;50.232;30.540;2023-02-10T01:29:07;102283.24;;;-7.30;100.00
49801;BME280;35698;50.232;30.540;2023-02-10T01:30:11;102289.92;;;-7.34;100.00
49801;BME280;35698;50.232;30.540;2023-02-10T01:31:23;102279.35;;;-7.22;100.00
49801;BME280;35698;50.232;30.540;2023-02-10T01:32:26;102287.42;;;-7.32;100.00
49801;BME280;35698;50.232;30.540;2023-02-10T01:33:30;102281.55;;;-7.30;100.00
49801;BME280;35698;50.232;30.540;2023-02-10T01:34:35;102284.13;;;-7.30;100.00
49801;BME280;35698;50.232;30.540;2023-02-10T01:35:57;102280.75;;;-7.29;100.00
49801;BME280;35698;50.232;30.540;2023-02-10T01:37:09;102275.31;;;-7.17;100.00
49801;BME280;35698;50.232;30.540;2023-02-10T01:38:13;102287.79;;;-7.24;100.00
49801;BME280;35698;50.232;30.540;2023-02-10T01:39:24;102275.38;;;-7.15;100.00
49801;BME280;35698;50.232;30.540;2023-02-10T01:40:28;102272.38;;;-7.24;100.00
49801;BME280;35698;50.232;30.540;2023-02-10T01:41:40;102274.58;;;-7.14;100.00
49801;BME280;35698;50.232;30.540;2023-02-10T01:42:43;102275.32;;;-7.35;100.00
49801;BME280;35698;50.232;30.540;2023-02-10T01:44:06;102277.59;;;-7.23;100.00
49801;BME280;35698;50.232;30.540;2023-02-10T01:45:17;102277.01;;;-7.35;100.00
49801;BME280;35698;50.232;30.540;2023-02-10T01:46:20;102277.30;;;-7.47;100.00
49801;BME280;35698;50.232;30.540;2023-02-10T01:47:24;102276.42;;;-7.47;100.00
49801;BME280;35698;50.232;30.540;2023-02-10T01:48:36;102274.44;;;-7.35;100.00
49801;BME280;35698;50.232;30.540;2023-02-10T01:49:42;102282.06;;;-7.54;100.00
49801;BME280;35698;50.232;30.540;2023-02-10T01:51:03;102283.02;;;-7.52;100.00
49801;BME280;35698;50.232;30.540;2023-02-10T01:52:20;102285.06;;;-7.63;100.00
49801;BME280;35698;50.232;30.540;2023-02-10T01:55:57;102271.06;;;-7.52;100.00
49801;BME280;35698;50.232;30.540;2023-02-10T01:57:01;102272.45;;;-7.58;100.00
49801;BME280;35698;50.232;30.540;2023-02-10T01:59:32;102267.84;;;-7.48;100.00
49801;BME280;35698;50.232;30.540;2023-02-10T02:00:37;102267.33;;;-7.41;100.00
49801;BME280;35698;50.232;30.540;2023-02-10T02:02:00;102259.84;;;-7.36;100.00
49801;BME280;35698;50.232;30.540;2023-02-10T02:03:05;102264.17;;;-7.35;100.00
49801;BME280;35698;50.232;30.540;2023-02-10T02:04:09;102262.78;;;-7.46;100.00
49801;BME280;35698;50.232;30.540;2023-02-10T02:05:28;102260.50;;;-7.40;100.00
49801;BME280;35698;50.232;30.540;2023-02-10T02:06:40;102268.57;;;-7.33;100.00
49801;BME280;35698;50.232;30.540;2023-02-10T02:07:44;102257.20;;;-7.38;100.00
49801;BME280;35698;50.232;30.540;2023-02-10T02:08:48;102259.91;;;-7.35;100.00
49801;BME280;35698;50.232;30.540;2023-02-10T02:09:52;102259.18;;;-7.32;100.00
49801;BME280;35698;50.232;30.540;2023-02-10T02:13:47;102252.05;;;-7.20;100.00
49801;BME280;35698;50.232;30.540;2023-02-10T02:15:14;102258.42;;;-7.12;100.00
49801;BME280;35698;50.232;30.540;2023-02-10T02:32:21;102250.20;;;-7.05;100.00
49801;BME280;35698;50.232;30.540;2023-02-10T02:33:33;102254.45;;;-7.05;100.00
49801;BME280;35698;50.232;30.540;2023-02-10T02:40:16;102251.60;;;-7.11;100.00
49801;BME280;35698;50.232;30.540;2023-02-10T02:41:23;102257.83;;;-7.06;100.00
49801;BME280;35698;50.232;30.540;2023-02-10T02:42:35;102252.02;;;-6.83;100.00
49801;BME280;35698;50.232;30.540;2023-02-10T02:43:39;102264.13;;;-7.00;100.00
49801;BME280;35698;50.232;30.540;2023-02-10T02:44:46;102262.52;;;-6.98;100.00
49801;BME280;35698;50.232;30.540;2023-02-10T02:46:12;102253.44;;;-6.89;100.00
49801;BME280;35698;50.232;30.540;2023-02-10T02:50:19;102248.23;;;-6.91;100.00
49801;BME280;35698;50.232;30.540;2023-02-10T02:51:30;102258.25;;;-6.97;100.00
49801;BME280;35698;50.232;30.540;2023-02-10T02:55:50;102253.64;;;-6.85;100.00
49801;BME280;35698;50.232;30.540;2023-02-10T02:58:31;102250.41;;;-7.00;100.00
49801;BME280;35698;50.232;30.540;2023-02-10T02:59:51;102244.67;;;-6.95;100.00
49801;BME280;35698;50.232;30.540;2023-02-10T03:00:58;102252.91;;;-7.02;100.00
49801;BME280;35698;50.232;30.540;2023-02-10T03:02:11;102242.84;;;-6.97;100.00
49801;BME280;35698;50.232;30.540;2023-02-10T03:03:23;102245.80;;;-6.88;100.00
49801;BME280;35698;50.232;30.540;2023-02-10T03:04:29;102245.59;;;-6.92;100.00
49801;BME280;35698;50.232;30.540;2023-02-10T03:05:42;102245.27;;;-6.81;100.00
49801;BME280;35698;50.232;30.540;2023-02-10T03:06:45;102249.45;;;-6.83;100.00
49801;BME280;35698;50.232;30.540;2023-02-10T03:07:57;102243.71;;;-6.77;100.00
49801;BME280;35698;50.232;30.540;2023-02-10T03:09:00;102243.52;;;-7.01;100.00
49801;BME280;35698;50.232;30.540;2023-02-10T03:10:07;102246.88;;;-6.83;100.00
49801;BME280;35698;50.232;30.540;2023-02-10T03:11:11;102244.24;;;-6.84;100.00
49801;BME280;35698;50.232;30.540;2023-02-10T03:12:23;102245.33;;;-6.79;100.00
49801;BME280;35698;50.232;30.540;2023-02-10T03:13:26;102245.80;;;-6.88;100.00
49801;BME280;35698;50.232;30.540;2023-02-10T03:14:32;102242.55;;;-6.84;100.00
49801;BME280;35698;50.232;30.540;2023-02-10T03:15:36;102242.16;;;-6.74;100.00
49801;BME280;35698;50.232;30.540;2023-02-10T03:16:39;102235.86;;;-6.80;100.00
49801;BME280;35698;50.232;30.540;2023-02-10T03:17:43;102237.02;;;-6.74;100.00
49801;BME280;35698;50.232;30.540;2023-02-10T03:18:46;102237.29;;;-6.68;100.00
49801;BME280;35698;50.232;30.540;2023-02-10T03:19:58;102239.39;;;-6.59;100.00
49801;BME280;35698;50.232;30.540;2023-02-10T03:21:02;102239.45;;;-6.57;100.00
49801;BME280;35698;50.232;30.540;2023-02-10T03:22:05;102233.37;;;-6.59;100.00
49801;BME280;35698;50.232;30.540;2023-02-10T03:23:10;102237.97;;;-6.52;100.00
49801;BME280;35698;50.232;30.540;2023-02-10T03:24:22;102224.56;;;-6.45;100.00
49801;BME280;35698;50.232;30.540;2023-02-10T03:25:26;102227.69;;;-6.52;100.00
49801;BME280;35698;50.232;30.540;2023-02-10T03:26:37;102223.27;;;-6.36;100.00
49801;BME280;35698;50.232;30.540;2023-02-10T03:27:43;102220.04;;;-6.51;99.84
49801;BME280;35698;50.232;30.540;2023-02-10T03:28:55;102221.52;;;-6.37;100.00
49801;BME280;35698;50.232;30.540;2023-02-10T03:29:59;102211.84;;;-6.42;100.00
49801;BME280;35698;50.232;30.540;2023-02-10T03:31:13;102209.73;;;-6.32;99.71
49801;BME280;35698;50.232;30.540;2023-02-10T03:32:17;102219.56;;;-6.42;100.00
49801;BME280;35698;50.232;30.540;2023-02-10T03:33:21;102216.23;;;-6.40;100.00
49801;BME280;35698;50.232;30.540;2023-02-10T03:34:32;102218.52;;;-6.26;100.00
49801;BME280;35698;50.232;30.540;2023-02-10T03:35:36;102223.20;;;-6.37;99.14
49801;BME280;35698;50.232;30.540;2023-02-10T03:36:47;102211.95;;;-6.20;99.21
49801;BME280;35698;50.232;30.540;2023-02-10T03:37:51;102211.55;;;-6.29;98.08
49801;BME280;35698;50.232;30.540;2023-02-10T03:38:54;102209.80;;;-6.30;98.25
49801;BME280;35698;50.232;30.540;2023-02-10T03:40:17;102208.78;;;-6.34;98.57
49801;BME280;35698;50.232;30.540;2023-02-10T03:41:21;102211.36;;;-6.34;98.98
49801;BME280;35698;50.232;30.540;2023-02-10T03:42:32;102205.11;;;-6.19;98.67
49801;BME280;35698;50.232;30.540;2023-02-10T03:43:36;102203.70;;;-6.32;98.51
49801;BME280;35698;50.232;30.540;2023-02-10T03:44:39;102209.41;;;-6.39;99.89
49801;BME280;35698;50.232;30.540;2023-02-10T03:45:43;102201.27;;;-6.29;98.98
49801;BME280;35698;50.232;30.540;2023-02-10T03:46:46;102201.27;;;-6.29;98.45
49801;BME280;35698;50.232;30.540;2023-02-10T03:47:58;102199.58;;;-6.29;99.21
49801;BME280;35698;50.232;30.540;2023-02-10T03:49:03;102203.19;;;-6.44;99.55
49801;BME280;35698;50.232;30.540;2023-02-10T03:50:15;102190.98;;;-6.29;100.00
49801;BME280;35698;50.232;30.540;2023-02-10T03:51:19;102193.98;;;-6.39;100.00
49801;BME280;35698;50.232;30.540;2023-02-10T03:52:23;102194.17;;;-6.35;99.91
49801;BME280;35698;50.232;30.540;2023-02-10T03:53:34;102181.08;;;-6.20;99.73
49801;BME280;35698;50.232;30.540;2023-02-10T03:54:58;102188.34;;;-6.31;100.00
49801;BME280;35698;50.232;30.540;2023-02-10T03:56:03;102200.52;;;-6.26;99.46
49801;BME280;35698;50.232;30.540;2023-02-10T03:57:07;102178.56;;;-6.18;99.08
49801;BME280;35698;50.232;30.540;2023-02-10T03:58:10;102185.97;;;-6.26;99.56
49801;BME280;35698;50.232;30.540;2023-02-10T03:59:15;102186.84;;;-6.25;99.88
49801;BME280;35698;50.232;30.540;2023-02-10T04:00:18;102183.13;;;-6.32;100.00
49801;BME280;35698;50.232;30.540;2023-02-10T04:01:30;102180.27;;;-6.19;100.00
49801;BME280;35698;50.232;30.540;2023-02-10T04:02:33;102179.19;;;-6.24;100.00
49801;BME280;35698;50.232;30.540;2023-02-10T04:03:37;102183.52;;;-6.23;100.00
49801;BME280;35698;50.232;30.540;2023-02-10T04:04:42;102185.22;;;-6.23;100.00
49801;BME280;35698;50.232;30.540;2023-02-10T04:05:45;102177.69;;;-6.19;100.00
49801;BME280;35698;50.232;30.540;2023-02-10T04:07:09;102177.81;;;-6.16;99.56
49801;BME280;35698;50.232;30.540;2023-02-10T04:08:13;102182.84;;;-6.19;99.77
49801;BME280;35698;50.232;30.540;2023-02-10T04:09:17;102178.89;;;-6.11;100.00
49801;BME280;35698;50.232;30.540;2023-02-10T04:10:20;102176.06;;;-6.17;100.00
49801;BME280;35698;50.232;30.540;2023-02-10T04:11:24;102175.66;;;-6.05;100.00
49801;BME280;35698;50.232;30.540;2023-02-10T04:12:28;102183.81;;;-5.95;100.00
49801;BME280;35698;50.232;30.540;2023-02-10T04:13:31;102185.06;;;-6.06;99.05
49801;BME280;35698;50.232;30.540;2023-02-10T04:14:35;102175.66;;;-6.05;98.98
49801;BME280;35698;50.232;30.540;2023-02-10T04:15:38;102181.93;;;-5.99;99.13
49801;BME280;35698;50.232;30.540;2023-02-10T04:16:42;102180.23;;;-5.98;98.30
49801;BME280;35698;50.232;30.540;2023-02-10T04:17:54;102180.64;;;-5.87;99.17
49801;BME280;35698;50.232;30.540;2023-02-10T04:18:57;102188.42;;;-5.86;98.90
49801;BME280;35698;50.232;30.540;2023-02-10T04:20:01;102187.79;;;-5.80;98.56
49801;BME280;35698;50.232;30.540;2023-02-10T04:21:12;102181.77;;;-5.81;98.49
49801;BME280;35698;50.232;30.540;2023-02-10T04:22:16;102180.06;;;-5.80;98.53
49801;BME280;35698;50.232;30.540;2023-02-10T04:23:19;102187.79;;;-5.80;98.72
49801;BME280;35698;50.232;30.540;2023-02-10T04:24:23;102187.28;;;-5.72;98.29
49801;BME280;35698;50.232;30.540;2023-02-10T04:25:26;102182.58;;;-5.82;98.16
49801;BME280;35698;50.232;30.540;2023-02-10T04:26:38;102179.98;;;-5.61;98.12
49801;BME280;35698;50.232;30.540;2023-02-10T04:27:41;102180.49;;;-5.70;97.61
49801;BME280;35698;50.232;30.540;2023-02-10T04:28:45;102182.49;;;-5.63;97.48
49801;BME280;35698;50.232;30.540;2023-02-10T04:29:49;102175.59;;;-5.64;97.39
49801;BME280;35698;50.232;30.540;2023-02-10T04:30:54;102182.37;;;-5.66;97.00
49801;BME280;35698;50.232;30.540;2023-02-10T04:32:07;102178.52;;;-5.54;97.07
49801;BME280;35698;50.232;30.540;2023-02-10T04:33:11;102178.34;;;-5.59;96.64
49801;BME280;35698;50.232;30.540;2023-02-10T04:34:15;102176.34;;;-5.66;96.39
49801;BME280;35698;50.232;30.540;2023-02-10T04:35:18;102180.61;;;-5.67;96.39
49801;BME280;35698;50.232;30.540;2023-02-10T04:36:30;102170.62;;;-5.59;97.34
49801;BME280;35698;50.232;30.540;2023-02-10T04:37:34;102172.13;;;-5.64;98.03
49801;BME280;35698;50.232;30.540;2023-02-10T04:38:37;102175.04;;;-5.77;98.56
49801;BME280;35698;50.232;30.540;2023-02-10T04:39:48;102176.65;;;-5.58;98.41
49801;BME280;35698;50.232;30.540;2023-02-10T04:40:52;102172.20;;;-5.63;97.95
49801;BME280;35698;50.232;30.540;2023-02-10T04:41:55;102178.86;;;-5.68;98.05
49801;BME280;35698;50.232;30.540;2023-02-10T04:43:08;102176.19;;;-5.48;97.49
49801;BME280;35698;50.232;30.540;2023-02-10T04:44:11;102183.38;;;-5.62;96.85
49801;BME280;35698;50.232;30.540;2023-02-10T04:45:15;102179.62;;;-5.70;98.15
49801;BME280;35698;50.232;30.540;2023-02-10T04:46:18;102185.25;;;-5.58;97.64
49801;BME280;35698;50.232;30.540;2023-02-10T04:47:30;102183.27;;;-5.43;96.66
49801;BME280;35698;50.232;30.540;2023-02-10T04:48:33;102189.52;;;-5.58;96.54
49801;BME280;35698;50.232;30.540;2023-02-10T04:49:38;102188.06;;;-5.52;96.41
49801;BME280;35698;50.232;30.540;2023-02-10T04:50:42;102181.38;;;-5.69;96.85
49801;BME280;35698;50.232;30.540;2023-02-10T04:51:54;102176.70;;;-5.57;97.35
49801;BME280;35698;50.232;30.540;2023-02-10T04:52:57;102182.37;;;-5.66;97.38
49801;BME280;35698;50.232;30.540;2023-02-10T04:54:01;102177.52;;;-5.58;96.65
49801;BME280;35698;50.232;30.540;2023-02-10T04:55:04;102173.19;;;-5.59;96.76
49801;BME280;35698;50.232;30.540;2023-02-10T04:56:16;102169.16;;;-5.52;97.04
49801;BME280;35698;50.232;30.540;2023-02-10T04:57:19;102177.28;;;-5.64;97.06
49801;BME280;35698;50.232;30.540;2023-02-10T04:58:32;102165.01;;;-5.49;96.77
49801;BME280;35698;50.232;30.540;2023-02-10T04:59:37;102169.74;;;-5.59;96.52
49801;BME280;35698;50.232;30.540;2023-02-10T05:00:40;102163.53;;;-5.65;96.76
49801;BME280;35698;50.232;30.540;2023-02-10T05:01:52;102158.92;;;-5.51;96.33
49801;BME280;35698;50.232;30.540;2023-02-10T05:02:56;102166.29;;;-5.60;95.29
49801;BME280;35698;50.232;30.540;2023-02-10T05:03:59;102167.11;;;-5.61;95.78
49801;BME280;35698;50.232;30.540;2023-02-10T05:05:21;102164.35;;;-5.66;95.43
49801;BME280;35698;50.232;30.540;2023-02-10T05:06:33;102166.23;;;-5.62;97.45
49801;BME280;35698;50.232;30.540;2023-02-10T05:07:56;102163.35;;;-5.69;97.37
49801;BME280;35698;50.232;30.540;2023-02-10T05:09:00;102154.93;;;-5.65;96.29
49801;BME280;35698;50.232;30.540;2023-02-10T05:10:22;102158.33;;;-5.66;96.31
49801;BME280;35698;50.232;30.540;2023-02-10T05:11:25;102155.87;;;-5.63;95.38
49801;BME280;35698;50.232;30.540;2023-02-10T05:12:29;102150.54;;;-5.68;94.95
49801;BME280;35698;50.232;30.540;2023-02-10T05:13:33;102152.36;;;-5.65;95.43
49801;BME280;35698;50.232;30.540;2023-02-10T05:14:37;102153.05;;;-5.69;95.60
49801;BME280;35698;50.232;30.540;2023-02-10T05:15:40;102156.56;;;-5.67;94.90
49801;BME280;35698;50.232;30.540;2023-02-10T05:16:44;102151.72;;;-5.59;94.32
49801;BME280;35698;50.232;30.540;2023-02-10T05:17:55;102149.91;;;-5.40;93.77
49801;BME280;35698;50.232;30.540;2023-02-10T05:18:59;102151.08;;;-5.54;92.73
49801;BME280;35698;50.232;30.540;2023-02-10T05:20:03;102152.77;;;-5.54;92.77
49801;BME280;35698;50.232;30.540;2023-02-10T05:21:24;102149.55;;;-5.49;92.56
49801;BME280;35698;50.232;30.540;2023-02-10T05:22:39;102157.45;;;-5.44;91.86
49801;BME280;35698;50.232;30.540;2023-02-10T05:23:43;102152.59;;;-5.59;91.64
49801;BME280;35698;50.232;30.540;2023-02-10T05:27:30;102167.05;;;-5.63;92.64
49801;BME280;35698;50.232;30.540;2023-02-10T05:28:33;102167.98;;;-5.61;91.56
49801;BME280;35698;50.232;30.540;2023-02-10T05:29:55;102168.16;;;-5.56;90.42
49801;BME280;35698;50.232;30.540;2023-02-10T05:31:07;102167.23;;;-5.58;91.85
49801;BME280;35698;50.232;30.540;2023-02-10T05:32:11;102155.45;;;-5.74;91.95
49801;BME280;35698;50.232;30.540;2023-02-10T05:33:14;102163.69;;;-5.82;92.71
49801;BME280;35698;50.232;30.540;2023-02-10T05:34:18;102171.47;;;-5.81;92.56
49801;BME280;35698;50.232;30.540;2023-02-10T05:35:22;102165.80;;;-5.72;92.41
49801;BME280;35698;50.232;30.540;2023-02-10T05:36:26;102168.44;;;-5.71;90.91
49801;BME280;35698;50.232;30.540;2023-02-10T05:37:37;102169.44;;;-5.67;90.91
49801;BME280;35698;50.232;30.540;2023-02-10T05:38:41;102168.70;;;-5.85;91.43
49801;BME280;35698;50.232;30.540;2023-02-10T05:39:44;102171.16;;;-5.88;91.34
49801;BME280;35698;50.232;30.540;2023-02-10T05:40:56;102165.56;;;-5.78;90.85
49801;BME280;35698;50.232;30.540;2023-02-10T05:41:59;102157.53;;;-5.86;91.43
49801;BME280;35698;50.232;30.540;2023-02-10T05:43:03;102177.09;;;-5.91;91.25
49801;BME280;35698;50.232;30.540;2023-02-10T05:44:07;102168.70;;;-5.85;90.91
49801;BME280;35698;50.232;30.540;2023-02-10T05:45:18;102167.95;;;-5.83;91.49
49801;BME280;35698;50.232;30.540;2023-02-10T05:46:22;102169.44;;;-5.89;91.23
49801;BME280;35698;50.232;30.540;2023-02-10T05:47:26;102163.80;;;-6.02;91.10
49801;BME280;35698;50.232;30.540;2023-02-10T05:48:38;102161.92;;;-5.83;91.48
49801;BME280;35698;50.232;30.540;2023-02-10T05:49:41;102162.53;;;-5.90;91.40
49801;BME280;35698;50.232;30.540;2023-02-10T05:50:51;102165.67;;;-5.98;90.48
49801;BME280;35698;50.232;30.540;2023-02-10T05:51:54;102159.23;;;-5.86;90.34
49801;BME280;35698;50.232;30.540;2023-02-10T05:52:57;102160.84;;;-5.90;90.06
49801;BME280;35698;50.232;30.540;2023-02-10T05:54:01;102155.50;;;-5.95;89.10
49801;BME280;35698;50.232;30.540;2023-02-10T05:55:05;102159.08;;;-5.91;88.95
49801;BME280;35698;50.232;30.540;2023-02-10T05:56:09;102160.05;;;-5.87;89.12
49801;BME280;35698;50.232;30.540;2023-02-10T05:57:20;102162.41;;;-5.71;87.83
49801;BME280;35698;50.232;30.540;2023-02-10T05:58:24;102155.96;;;-5.82;87.39
49801;BME280;35698;50.232;30.540;2023-02-10T05:59:28;102160.23;;;-5.83;86.87
49801;BME280;35698;50.232;30.540;2023-02-10T06:00:39;102147.03;;;-5.70;86.80
49801;BME280;35698;50.232;30.540;2023-02-10T06:01:43;102150.88;;;-5.81;87.49
49801;BME280;35698;50.232;30.540;2023-02-10T06:02:55;102154.30;;;-5.59;86.35
49801;BME280;35698;50.232;30.540;2023-02-10T06:03:58;102151.05;;;-5.76;86.14
49801;BME280;35698;50.232;30.540;2023-02-10T06:05:10;102152.72;;;-5.56;85.43
49801;BME280;35698;50.232;30.540;2023-02-10T06:06:14;102145.61;;;-5.84;84.59
49801;BME280;35698;50.232;30.540;2023-02-10T06:07:18;102151.12;;;-5.75;85.57
49801;BME280;35698;50.232;30.540;2023-02-10T06:08:32;102134.75;;;-5.54;83.63
49801;BME280;35698;50.232;30.540;2023-02-10T06:09:36;102136.84;;;-5.67;82.52
49801;BME280;35698;50.232;30.540;2023-02-10T06:10:42;102137.67;;;-5.68;81.80
49801;BME280;35698;50.232;30.540;2023-02-10T06:11:46;102133.09;;;-5.75;82.82
49801;BME280;35698;50.232;30.540;2023-02-10T06:12:49;102136.15;;;-5.63;82.58
49801;BME280;35698;50.232;30.540;2023-02-10T06:13:53;102131.77;;;-5.65;81.61
49801;BME280;35698;50.232;30.540;2023-02-10T06:15:04;102133.75;;;-5.58;80.83
49801;BME280;35698;50.232;30.540;2023-02-10T06:16:09;102130.41;;;-5.78;81.36
49801;BME280;35698;50.232;30.540;2023-02-10T06:17:20;102128.78;;;-5.53;81.91
49801;BME280;35698;50.232;30.540;2023-02-10T06:18:24;102125.15;;;-5.58;80.75
49801;BME280;35698;50.232;30.540;2023-02-10T06:19:28;102130.00;;;-5.66;79.85
49801;BME280;35698;50.232;30.540;2023-02-10T06:20:31;102122.28;;;-5.66;80.60
49801;BME280;35698;50.232;30.540;2023-02-10T06:21:43;102135.21;;;-5.65;80.99
49801;BME280;35698;50.232;30.540;2023-02-10T06:22:46;102130.00;;;-5.66;81.24
49801;BME280;35698;50.232;30.540;2023-02-10T06:23:50;102134.27;;;-5.67;80.72
49801;BME280;35698;50.232;30.540;2023-02-10T06:25:01;102130.24;;;-5.60;81.09
49801;BME280;35698;50.232;30.540;2023-02-10T06:26:05;102133.45;;;-5.66;80.52